Historyczne dane pomiarowe

Dodano dane terminowe – wersja testowa.

Dane z okresu 1951-2019

Wersja bazy: 1.34 [2019-03-16, lista zmian], aktualizacja planowana na 2019-04-15

Dane meteo z obszaru Polski uzyskane na podstawie danych udostępnionych przez Instytut Meteorologii i Gospodarki Wodnej – Państwowy Instytut Badawczy.

 

Wybierz Datę:    

       

TemperaturaWilgotnośćWiatrCiśnienieOpadyŚniegCzas trwania zjawisk
 Stacja t tx tn tng RH VA  wxwx mslp ppp RRR   cm mm wxwxwxwxwxwxwx
2014-10-10 13.2 20.0 7.9 5.6 81.8 12.3 3.4 1.0 0.0 0.0- 920.1 0.0 0.0 0.0- 0.0 6.5---- 12.0--
2014-10-09 15.2 20.2 8.0 5.6 67.3 11.3 4.3 2.4 0.0 0.0- 918.9 0.0 0.0 0.0- 0.0 8.2---- 11.0--
2014-10-08 11.1 17.5 4.7 3.2 76.6 10.0 6.6 1.9 0.0 0.0- 920.3 0.0 0.0 0.0- 0.0 6.1---- 7.0--
2014-10-07 8.5 15.1 1.9 -0.2 72.4 7.7 4.5 2.1 0.0 0.0- 920.0 0.0 0.0 0.0- 0.0 7.7---- 9.0 3.0-
2014-10-06 6.9 12.5 2.0 -0.3 84.5 8.4 3.5 1.1 0.0 0.0- 921.5 0.4 0.4 0.0- 0.0 4.9 0.6--- 10.0 2.0-
2014-10-05 8.3 13.9 4.0 2.6 84.9 9.2 3.8 1.3 0.0 0.0- 922.2 0.0 0.0 0.0- 0.0 4.1--- 0.5 16.0--
2014-10-04 8.5 10.7 6.9 6.9 92.4 10.3 7.8 0.6 0.0 0.0- 924.2 0.0 0.0 0.0- 0.0 0.0 1.0--- 1.0--
2014-10-03 7.4 9.2 4.8 3.6 93.8 9.6 7.8 0.9 0.0 0.0- 927.4 0.3 0.3 0.0- 0.0 0.0 5.1------
2014-10-02 10.3 12.2 8.9 7.5 94.0 11.8 6.5 0.6 0.0 0.0- 928.0 5.4 5.4 0.0- 0.0 0.0 9.7-- 1.9---
2014-10-01 12.1 15.3 10.1 8.8 89.3 12.5 7.5 0.8 0.0 0.0- 926.9 19.4 3.2 16.2- 0.0 0.0 16.4--- 2.9--
2014-09-30 11.5 20.3 3.3 1.1 74.8 10.0 4.6 1.4 0.0 0.0- 927.0 0.7 0.0 0.7- 0.0 6.8---- 13.0--
2014-09-29 9.8 19.9 2.8 0.6 77.1 9.0 3.6 0.9 0.0 0.0- 928.5 0.0 0.0 0.0- 0.0 7.5---- 14.0--
2014-09-28 8.0 16.5 1.3 0.3 81.6 8.6 2.0 1.1 0.0 0.0- 929.6 0.0 0.0 0.0- 0.0 8.0---- 13.0--
2014-09-27 7.5 10.5 3.7 1.8 95.1 9.9 6.1 0.9 0.0 0.0- 926.4 2.7 2.7 0.0- 0.0 0.0 6.3------
2014-09-26 7.6 8.9 6.6 6.2 92.6 9.7 8.0 0.9 0.0 0.0- 920.7 7.9 7.9 0.0- 0.0 0.0 16.7------
2014-09-25 7.3 13.5 1.8 0.4 81.0 8.2 5.5 1.3 0.0 0.0- 917.0 5.7 0.0 5.7- 0.0 3.3 2.6--- 5.1 3.0-
2014-09-24 6.1 13.1 0.1 -1.2 80.4 7.4 1.9 1.0 0.0 0.0- 918.5 0.0 0.0 0.0- 0.0 8.1---- 7.0 1.0-
2014-09-23 5.2 7.1 4.2 3.6 88.9 7.9 7.5 1.6 0.0 0.0- 914.9 10.4 10.4 0.0- 0.0 0.0 12.4------
2014-09-22 8.7 12.5 6.0 4.2 89.3 10.1 6.9 1.3 0.0 0.0- 911.1 8.4 7.1 1.3- 0.0 0.3 9.4------
2014-09-21 13.2 18.6 10.3 9.2 90.9 13.7 6.6 1.1 0.0 0.0- 914.5 10.9 6.0 4.9- 0.0 2.8 7.2------
2014-09-20 12.9 20.0 7.0 5.0 85.8 12.7 5.3 1.4 0.0 0.0- 917.9 4.0 0.4 3.6- 0.0 2.9 1.6--- 7.3--
2014-09-19 11.9 18.4 5.7 4.2 72.3 9.6 3.4 1.8 0.0 0.0- 921.3 0.0 0.0 0.0- 0.0 7.3---- 15.0--
2014-09-18 11.5 19.2 5.1 2.9 71.5 9.1 3.0 1.4 0.0 0.0- 922.6 0.0 0.0 0.0- 0.0 8.1---- 13.0--
2014-09-17 12.0 18.3 7.0 5.6 84.5 11.7 2.9 0.9 0.0 0.0- 922.3 0.0 0.0 0.0- 0.0 5.1---- 6.0--
2014-09-16 12.7 18.1 7.6 6.6 84.8 12.3 5.1 1.0 0.0 0.0- 922.5 11.5 5.5 6.0- 0.0 3.6 1.5--- 8.0--
2014-09-15 14.3 20.0 10.3 9.0 80.4 12.8 6.0 1.0 0.0 0.0- 921.0 0.0 0.0 0.0- 0.0 3.2---- 12.0--
2014-09-14 14.0 17.2 12.3 11.8 92.1 14.7 7.3 0.8 0.0 0.0- 920.1 0.4 0.4 0.0- 0.0 0.0 2.1--- 2.0--
2014-09-13 12.8 18.6 7.1 6.0 90.0 13.3 6.4 0.9 0.0 0.0- 920.3 0.7 0.2 0.5- 0.0 0.5 3.6------
2014-09-12 14.0 18.8 12.0 11.4 83.9 13.2 6.4 1.4 0.0 0.0- 917.7 0.0 0.0 0.0- 0.0 0.6 0.5------
2014-09-11 12.1 14.3 9.4 8.9 93.9 13.3 7.5 0.6 0.0 0.0- 916.0 10.7 7.8 2.9- 0.0 0.0 11.7------
2014-09-10 11.9 14.1 11.1 11.1 93.1 12.9 7.8 0.6 0.0 0.0- 917.9 0.5 0.5 0.0- 0.0 0.0 9.8------
2014-09-09 14.8 21.6 10.0 8.5 86.6 14.4 4.9 1.0 0.0 0.0- 919.3 1.6 0.8 0.8- 0.0 4.6 3.7----- 0.8
2014-09-08 15.4 21.0 9.8 8.5 82.9 14.2 3.9 0.9 0.0 0.0- 920.0 7.7 0.0 7.7- 0.0 6.2 2.2------
2014-09-07 14.8 20.7 9.9 8.3 85.5 14.1 5.5 1.1 0.0 0.0- 918.7 11.2 10.6 0.6- 0.0 4.7 3.8----- 1.0
2014-09-06 14.5 20.8 9.8 8.1 82.8 13.4 4.8 0.9 0.0 0.0- 918.6 5.5 5.5 0.0- 0.0 0.9 1.6--- 10.0- 1.7
2014-09-05 14.9 21.9 8.6 6.8 81.5 13.5 2.6 1.1 0.0 0.0- 920.4 0.0 0.0 0.0- 0.0 7.3---- 15.0--
2014-09-04 15.7 21.2 11.7 11.4 83.1 14.7 5.8 1.5 0.0 0.0- 923.1 0.0 0.0 0.0- 0.0 7.9-------
2014-09-03 13.8 16.2 12.5 12.7 91.6 14.4 7.8 1.4 0.0 0.0- 922.2 0.0 0.0 0.0- 0.0 0.1 6.2-- 0.8---
2014-09-02 14.3 16.2 13.1 13.1 90.4 14.7 7.9 0.8 0.0 0.0- 918.1 0.0 0.0 0.0- 0.0 0.0 0.7--- 10.0--
2014-09-01 13.9 17.3 10.8 10.6 92.8 14.7 7.1 0.8 0.0 0.0- 915.6 1.5 1.5 0.0- 0.0 1.0 2.6------
2014-08-31 13.8 19.0 9.1 7.7 87.6 13.8 6.3 0.8 0.0 0.0- 917.7 2.1 1.6 0.5- 0.0 3.1 4.4--- 7.0- 0.4
2014-08-30 14.2 20.7 8.6 7.4 78.0 12.4 6.1 1.1 0.0 0.0- 921.0 0.0 0.0 0.0- 0.0 5.9---- 14.0--
2014-08-29 11.7 18.6 4.5 3.2 74.4 9.9 3.8 1.5 0.0 0.0- 921.9 0.0 0.0 0.0- 0.0 10.1---- 12.0--
2014-08-28 10.5 15.7 6.4 5.6 76.1 9.4 4.5 1.4 0.0 0.0- 920.9 0.0 0.0 0.0- 0.0 5.2---- 14.0--
2014-08-27 9.6 14.9 6.9 6.9 90.6 10.9 7.4 0.9 0.0 0.0- 913.6 7.5 7.5 0.0- 0.0 0.0 14.7------
2014-08-26 12.1 16.6 4.3 3.4 72.1 10.2 7.0 1.6 0.0 0.0- 911.9 4.8 0.0 4.8- 0.0 0.4 6.7--- 4.5--
2014-08-25 9.1 15.4 4.3 3.9 71.6 7.9 2.8 1.5 0.0 0.0- 919.6 0.0 0.0 0.0- 0.0 9.7 0.3--- 4.0--
2014-08-24 9.7 13.1 7.9 7.0 89.3 10.8 6.8 1.4 0.0 0.0- 916.0 2.9 2.2 0.7- 0.0 0.3 12.0------
2014-08-23 12.5 19.5 6.3 4.8 80.9 11.5 6.9 0.8 0.0 0.0- 917.7 17.3 0.2 17.1- 0.0 4.8 4.8--- 9.0--
2014-08-22 10.2 16.7 3.5 1.3 81.5 10.0 3.1 0.8 0.0 0.0- 920.0 0.0 0.0 0.0- 0.0 5.3---- 15.0--
2014-08-21 9.6 13.9 8.6 7.1 88.3 10.6 5.8 1.0 0.0 0.0- 918.5 15.6 15.6 0.0- 0.0 1.1 7.9------
2014-08-20 13.3 19.2 7.5 6.5 75.6 11.1 5.4 0.9 0.0 0.0- 918.2 0.2 0.0 0.2- 0.0 2.2 0.4-- 1.6---
2014-08-19 13.3 19.4 9.3 7.7 80.1 12.2 4.9 0.6 0.0 0.0- 916.4 3.6 3.6 0.0- 0.0 3.1 1.9-- 2.2 7.0--
2014-08-18 14.4 20.8 5.3 3.6 64.1 10.0 3.8 2.0 0.0 0.0- 915.5 0.0 0.0 0.0- 0.0 8.8---- 8.0--
2014-08-17 12.0 16.5 7.5 6.8 73.4 10.1 3.3 1.4 0.0 0.0- 917.9 0.0 0.0 0.0- 0.0 8.7---- 11.0--
2014-08-16 12.4 16.7 10.1 9.9 78.8 11.2 6.4 1.5 0.0 0.0- 916.5 0.0 0.0 0.0- 0.0 7.6 3.8------
2014-08-15 12.9 18.0 8.2 7.1 83.5 12.2 5.0 0.8 0.0 0.0- 916.0 7.2 3.6 3.6- 0.0 5.7 4.6------
2014-08-14 13.8 23.0 12.4 12.4 90.0 14.2 7.3 1.0 0.0 0.0- 913.8 3.2 3.2 0.0- 0.0 0.0 6.4------
2014-08-13 16.9 22.5 11.9 11.5 81.0 15.2 7.3 1.5 0.0 0.0- 914.4 11.8 1.6 10.2- 0.0 1.6 8.4----- 2.1
2014-08-12 15.6 18.6 14.3 13.8 88.6 15.7 7.4 0.9 0.0 0.0- 918.2 1.5 0.6 0.9- 0.0 0.3 5.9------
320.1 ms

 

Źródłem pochodzenia danych jest Instytut Meteorologii i Gospodarki Wodnej – Państwowy Instytut Badawczy. Dane Instytutu Meteorologii i Gospodarki Wodnej – Państwowego Instytutu Badawczego zostały przetworzone.

Dane źródłowe można odnaleźć na stronie https://dane.imgw.pl